Time;durP1;ratioP1;P1;durP2;ratioP2;P2;SDS_P1;SDS_P2;PMS_P1;PMS_P2;Temp;Humidity;BMP_temperature;BMP_pressure;BME280_temperature;BME280_humidity;BME280_pressure;Samples;Min_cycle;Max_cycle;Signal;HPM_P1;HPM_P2
2021/08/01 00:01:06;;;;;;;11.15;8.58;;;;;;;23.38;65.68;99186.92;1701999;83;20953;-73
2021/08/01 00:03:33;;;;;;;9.38;8.48;;;;;;;23.36;65.77;99188.41;1699832;84;21006;-72
2021/08/01 00:05:59;;;;;;;12.58;8.78;;;;;;;23.35;65.62;99187.63;1702724;84;21225;-72
2021/08/01 00:08:26;;;;;;;9.80;8.80;;;;;;;23.35;65.69;99184.89;1710595;83;20932;-74
2021/08/01 00:10:57;;;;;;;11.08;8.25;;;;;;;23.38;65.65;99182.81;1709319;83;20992;-73
2021/08/01 00:13:24;;;;;;;9.38;8.23;;;;;;;23.40;65.55;99183.25;1693003;83;20987;-69
2021/08/01 00:15:51;;;;;;;10.20;7.42;;;;;;;23.45;65.42;99177.55;1710617;83;21535;-70
2021/08/01 00:18:17;;;;;;;12.68;7.65;;;;;;;23.51;65.50;99184.17;1692162;83;21190;-71
2021/08/01 00:20:44;;;;;;;10.20;7.92;;;;;;;23.53;65.40;99178.57;1710084;83;21586;-75
2021/08/01 00:23:12;;;;;;;9.63;8.73;;;;;;;23.56;65.38;99175.69;1669012;83;21047;-74
2021/08/01 00:25:39;;;;;;;9.10;8.15;;;;;;;23.56;65.41;99172.94;1710307;83;21568;-71
2021/08/01 00:28:06;;;;;;;12.50;8.98;;;;;;;23.52;65.48;99174.80;1692497;83;21046;-73
2021/08/01 00:30:33;;;;;;;13.05;8.28;;;;;;;23.53;65.53;99172.28;1708076;83;21938;-76
2021/08/01 00:33:00;;;;;;;10.95;8.08;;;;;;;23.49;65.74;99171.38;1697378;83;20979;-72
2021/08/01 00:35:28;;;;;;;12.10;8.28;;;;;;;23.45;65.77;99167.94;1724410;82;20987;-73
2021/08/01 00:37:56;;;;;;;11.33;8.38;;;;;;;23.40;65.84;99165.41;1732575;82;20984;-71
2021/08/01 00:40:22;;;;;;;12.58;9.05;;;;;;;23.33;65.96;99165.22;1707615;83;21003;-72
2021/08/01 00:42:50;;;;;;;11.48;8.45;;;;;;;23.27;66.00;99158.36;1748727;81;21471;-74
2021/08/01 00:45:16;;;;;;;10.45;9.45;;;;;;;23.23;66.32;99165.69;1735587;82;20986;-74
2021/08/01 00:47:43;;;;;;;11.12;8.10;;;;;;;23.24;66.17;99165.13;1735148;82;21050;-72
2021/08/01 00:50:12;;;;;;;8.55;7.70;;;;;;;23.24;66.02;99163.17;1735393;81;21508;-75
2021/08/01 00:52:39;;;;;;;9.38;8.53;;;;;;;23.25;66.07;99165.36;1735449;82;21030;-75
2021/08/01 00:55:09;;;;;;;11.33;8.70;;;;;;;23.23;66.08;99167.63;1745447;81;21227;-75
2021/08/01 00:57:36;;;;;;;8.70;7.67;;;;;;;23.24;66.08;99165.13;1762846;81;21493;-75
2021/08/01 01:00:22;;;;;;;9.03;8.13;;;;;;;23.24;66.04;99163.75;1739628;81;20978;-70
2021/08/01 01:02:42;;;;;;;13.03;9.20;;;;;;;23.25;66.01;99166.16;1712267;82;21310;-71
2021/08/01 01:05:34;;;;;;;10.00;8.63;;;;;;;23.16;66.53;99168.23;1734667;82;21491;-70
2021/08/01 01:08:12;;;;;;;14.20;9.13;;;;;;;23.07;66.79;99171.66;1723768;81;21062;-70
2021/08/01 01:10:58;;;;;;;11.20;9.88;;;;;;;23.01;66.92;99175.80;1752069;81;20974;-69
2021/08/01 01:13:34;;;;;;;9.08;8.18;;;;;;;22.96;67.05;99174.66;1738473;81;20927;-70
2021/08/01 01:16:02;;;;;;;8.93;8.13;;;;;;;22.91;67.12;99172.95;1735082;82;21467;-70
2021/08/01 01:18:51;;;;;;;15.53;8.95;;;;;;;22.93;67.17;99173.39;1735574;81;20922;-72
2021/08/01 01:21:27;;;;;;;9.58;8.30;;;;;;;22.90;67.19;99160.38;1765659;81;21130;-71
2021/08/01 01:24:07;;;;;;;10.23;8.93;;;;;;;22.92;67.17;99168.27;1717181;81;21048;-70
2021/08/01 01:26:40;;;;;;;13.25;8.68;;;;;;;22.92;67.26;99163.58;1760379;81;20979;-70
2021/08/01 01:29:23;;;;;;;9.78;8.13;;;;;;;22.90;67.16;99174.08;1758034;81;21550;-72
2021/08/01 01:31:56;;;;;;;;;;;;;;;22.93;67.02;99171.21;1715041;82;21058;-71
2021/08/01 01:34:28;;;;;;;9.10;8.20;;;;;;;22.92;67.12;99170.44;1704058;83;21059;-70
2021/08/01 01:36:55;;;;;;;8.93;7.97;;;;;;;22.93;67.24;99166.53;1702089;83;20982;-71
2021/08/01 01:39:22;;;;;;;20.05;8.75;;;;;;;22.95;67.22;99168.94;1750803;81;21569;-73
2021/08/01 01:41:56;;;;;;;8.93;8.13;;;;;;;22.94;67.45;99161.84;1725067;81;22194;-73
2021/08/01 01:44:25;;;;;;;9.43;8.48;;;;;;;22.95;67.48;99164.25;1754836;81;21054;-70
2021/08/01 01:46:52;;;;;;;10.90;9.03;;;;;;;22.96;67.55;99165.05;1731326;81;21016;-70
2021/08/01 01:49:19;;;;;;;11.33;8.60;;;;;;;22.94;67.72;99157.73;1748183;81;20974;-70
2021/08/01 01:51:49;;;;;;;10.13;9.10;;;;;;;22.94;67.71;99152.24;1726756;81;20895;-71
2021/08/01 01:54:17;;;;;;;9.03;8.23;;;;;;;22.97;67.18;99148.23;1756446;81;20995;-71
2021/08/01 01:56:44;;;;;;;12.20;9.58;;;;;;;22.98;67.25;99147.09;1751177;81;21035;-70
2021/08/01 01:59:13;;;;;;;8.63;7.83;;;;;;;22.97;67.34;99163.32;1712584;81;21185;-72
2021/08/01 02:01:39;;;;;;;8.95;8.10;;;;;;;22.97;67.43;99150.20;1724941;83;20931;-71
2021/08/01 02:04:07;;;;;;;9.85;8.95;;;;;;;22.95;67.50;99142.31;1724905;83;20971;-71
2021/08/01 02:06:53;;;;;;;14.93;8.98;;;;;;;22.91;67.90;99139.23;1733817;81;21031;-70
2021/08/01 02:09:45;;;;;;;10.90;8.75;;;;;;;22.83;68.24;99140.16;1753873;81;21441;-71
2021/08/01 02:12:19;;;;;;;10.60;9.45;;;;;;;22.76;68.54;99139.36;1754753;81;20890;-72
2021/08/01 02:15:07;;;;;;;11.03;8.65;;;;;;;22.67;68.98;99135.91;1731925;81;20971;-70
2021/08/01 02:17:51;;;;;;;9.93;8.58;;;;;;;22.65;68.71;99133.27;1731596;81;20975;-71
2021/08/01 02:20:22;;;;;;;9.23;8.33;;;;;;;22.66;68.80;99134.88;1741475;81;21000;-70
2021/08/01 02:22:53;;;;;;;9.80;8.80;;;;;;;22.61;69.03;99133.96;1752057;81;21029;-70
2021/08/01 02:25:20;;;;;;;9.50;8.55;;;;;;;22.62;69.20;99138.88;1755188;81;21063;-70
2021/08/01 02:27:48;;;;;;;8.05;7.25;;;;;;;22.62;69.21;99140.25;1730859;81;20980;-70
2021/08/01 02:30:15;;;;;;;12.23;9.38;;;;;;;22.61;69.47;99129.84;1702468;83;21582;-69
2021/08/01 02:32:43;;;;;;;10.00;8.90;;;;;;;22.56;69.81;99136.12;1725060;82;20967;-68
2021/08/01 02:35:09;;;;;;;14.60;10.65;;;;;;;22.49;70.31;99131.80;1743059;81;21214;-71
2021/08/01 02:37:36;;;;;;;10.70;9.63;;;;;;;22.43;70.70;99133.16;1762635;81;21060;-70
2021/08/01 02:40:05;;;;;;;11.78;9.63;;;;;;;22.40;70.82;99133.25;1736165;81;21005;-70
2021/08/01 02:42:33;;;;;;;9.80;8.85;;;;;;;22.41;70.51;99138.17;1736969;81;20931;-71
2021/08/01 02:45:00;;;;;;;10.65;9.33;;;;;;;22.39;70.53;99131.69;1762140;81;20963;-70
2021/08/01 02:47:29;;;;;;;10.90;8.80;;;;;;;22.39;70.55;99132.25;1737033;81;21062;-70
2021/08/01 02:49:56;;;;;;;13.88;8.65;;;;;;;22.41;70.48;99128.02;1731045;82;21003;-69
2021/08/01 02:52:42;;;;;;;11.70;9.45;;;;;;;22.46;70.38;99137.38;1749366;81;20880;-70
2021/08/01 02:55:11;;;;;;;10.60;9.50;;;;;;;22.50;70.32;99131.44;1736859;81;20990;-70
2021/08/01 02:57:37;;;;;;;14.35;11.73;;;;;;;22.52;70.30;99131.11;1737576;81;20982;-71
2021/08/01 03:00:06;;;;;;;14.18;10.05;;;;;;;22.53;70.20;99144.48;1762050;81;20974;-71
2021/08/01 03:02:33;;;;;;;12.65;9.90;;;;;;;22.55;70.20;99143.55;1759394;81;21049;-70
2021/08/01 03:05:00;;;;;;;11.45;9.98;;;;;;;22.57;70.05;99138.53;1734798;81;20977;-70
2021/08/01 03:07:28;;;;;;;10.80;9.70;;;;;;;22.59;69.84;99132.13;1720072;82;20982;-71
2021/08/01 03:09:54;;;;;;;13.65;7.85;;;;;;;22.61;69.86;99129.84;1734673;81;21038;-70
2021/08/01 03:12:21;;;;;;;11.57;9.20;;;;;;;22.64;69.89;99139.91;1733985;81;21097;-70
2021/08/01 03:14:48;;;;;;;10.55;9.40;;;;;;;22.69;69.75;99140.46;1752924;81;21246;-70
2021/08/01 03:17:14;;;;;;;11.05;9.95;;;;;;;22.74;69.63;99141.63;1760468;81;20998;-70
2021/08/01 03:19:42;;;;;;;13.55;10.43;;;;;;;22.79;69.47;99141.97;1760586;81;21130;-70
2021/08/01 03:22:10;;;;;;;10.53;9.43;;;;;;;22.83;69.40;99142.30;1762715;81;20959;-72
2021/08/01 03:24:40;;;;;;;11.70;9.65;;;;;;;22.88;69.30;99142.64;1761690;81;20976;-71
2021/08/01 03:27:08;;;;;;;12.78;11.48;;;;;;;22.95;69.16;99138.77;1756244;81;21161;-71
2021/08/01 03:29:36;;;;;;;10.58;9.48;;;;;;;22.98;69.38;99142.98;1732289;82;21518;-70
2021/08/01 03:32:06;;;;;;;12.35;10.85;;;;;;;22.98;69.52;99147.66;1738098;81;20970;-70
2021/08/01 03:34:32;;;;;;;16.32;10.35;;;;;;;22.96;69.48;99145.86;1720532;82;21038;-70
2021/08/01 03:36:59;;;;;;;15.48;12.43;;;;;;;22.95;69.71;99142.31;1747804;81;21054;-70
2021/08/01 03:39:35;;;;;;;21.27;12.98;;;;;;;22.95;69.82;99145.05;1748599;81;21838;-70
2021/08/01 03:42:04;;;;;;;17.55;13.20;;;;;;;22.94;69.84;99150.88;1762110;81;20978;-69
2021/08/01 03:44:31;;;;;;;17.57;11.22;;;;;;;22.96;69.96;99157.63;1761925;81;20998;-70
2021/08/01 03:46:58;;;;;;;11.25;10.13;;;;;;;23.01;69.97;99167.56;1761143;81;21456;-73
2021/08/01 03:49:26;;;;;;;13.55;10.23;;;;;;;23.07;69.67;99175.77;1762254;81;21543;-71
2021/08/01 03:51:52;;;;;;;11.30;10.08;;;;;;;23.13;69.41;99167.53;1751581;81;21276;-71
2021/08/01 03:54:19;;;;;;;12.23;10.93;;;;;;;23.21;69.13;99176.23;1739755;81;21582;-71
2021/08/01 03:56:46;;;;;;;12.50;9.58;;;;;;;23.24;68.95;99173.35;1747378;82;21046;-70
2021/08/01 03:59:12;;;;;;;10.30;9.33;;;;;;;23.24;68.89;99181.59;1759894;81;21510;-70
2021/08/01 04:01:40;;;;;;;11.85;9.85;;;;;;;23.23;68.74;99178.61;1761175;81;21061;-69
2021/08/01 04:04:06;;;;;;;11.03;9.98;;;;;;;23.26;68.66;99193.80;1729675;82;21742;-70
2021/08/01 04:06:33;;;;;;;11.68;10.48;;;;;;;23.28;68.70;99190.72;1701727;83;21085;-70
2021/08/01 04:09:00;;;;;;;12.93;10.08;;;;;;;23.31;68.58;99193.56;1705310;83;22246;-70
2021/08/01 04:11:28;;;;;;;14.47;9.55;;;;;;;23.32;68.53;99195.17;1702695;84;20984;-71
2021/08/01 04:13:56;;;;;;;12.28;10.98;;;;;;;23.34;68.48;99190.14;1704293;83;21010;-70
2021/08/01 04:16:23;;;;;;;21.77;10.15;;;;;;;23.35;68.51;99190.38;1669301;83;21223;-73
2021/08/01 04:18:51;;;;;;;10.68;9.70;;;;;;;23.35;68.47;99197.81;1709907;83;20976;-71
2021/08/01 04:21:19;;;;;;;14.20;9.65;;;;;;;23.36;68.54;99197.44;1709976;83;21458;-70
2021/08/01 04:23:46;;;;;;;11.35;10.15;;;;;;;23.39;68.48;99196.77;1710543;83;20982;-72
2021/08/01 04:26:12;;;;;;;13.22;9.58;;;;;;;23.41;68.47;99195.83;1708566;83;21071;-69
2021/08/01 04:28:39;;;;;;;14.83;9.33;;;;;;;23.41;68.52;99196.41;1683099;83;21179;-69
2021/08/01 04:31:05;;;;;;;15.05;10.43;;;;;;;23.44;68.50;99212.20;1710531;83;21016;-69
2021/08/01 04:33:32;;;;;;;12.07;10.88;;;;;;;23.45;68.42;99199.50;1712124;82;21043;-69
2021/08/01 04:35:58;;;;;;;11.08;9.95;;;;;;;23.48;68.54;99205.47;1732257;82;21054;-70
2021/08/01 04:38:24;;;;;;;13.95;9.95;;;;;;;23.49;68.45;99194.14;1718587;82;21101;-71
2021/08/01 04:40:51;;;;;;;11.38;9.73;;;;;;;23.51;68.35;99195.15;1680573;84;21106;-77
2021/08/01 04:43:19;;;;;;;19.90;16.80;;;;;;;23.51;68.32;99200.07;1713051;82;21055;-73
2021/08/01 04:45:45;;;;;;;19.05;9.60;;;;;;;23.54;68.26;99199.97;1712819;83;21499;-69
2021/08/01 04:48:12;;;;;;;13.05;11.75;;;;;;;23.58;68.21;99199.48;1697980;83;21118;-69
2021/08/01 04:50:38;;;;;;;11.38;10.28;;;;;;;23.62;68.11;99205.31;1698798;83;21340;-69
2021/08/01 04:53:05;;;;;;;15.28;11.18;;;;;;;23.72;67.81;99201.27;1732053;82;21235;-69
2021/08/01 04:55:32;;;;;;;15.65;10.13;;;;;;;23.84;67.45;99206.70;1732316;82;20971;-70
2021/08/01 04:57:58;;;;;;;10.32;9.15;;;;;;;23.98;66.99;99209.08;1731640;82;21051;-71
2021/08/01 05:00:24;;;;;;;11.15;10.03;;;;;;;24.12;66.39;99213.02;1732413;82;20968;-72
2021/08/01 05:02:51;;;;;;;10.80;9.73;;;;;;;24.27;65.97;99211.45;1732281;82;21094;-71
2021/08/01 05:05:18;;;;;;;9.88;8.98;;;;;;;24.39;65.56;99207.27;1708078;82;21859;-69
2021/08/01 05:07:44;;;;;;;13.65;9.88;;;;;;;24.51;65.10;99210.53;1705055;82;21120;-69
2021/08/01 05:10:11;;;;;;;12.85;9.80;;;;;;;24.61;64.76;99210.78;1703071;84;21059;-70
2021/08/01 05:12:38;;;;;;;13.72;10.78;;;;;;;24.71;64.54;99206.13;1697861;82;20920;-69
2021/08/01 05:15:08;;;;;;;13.05;11.80;;;;;;;24.82;64.22;99205.02;1732019;82;21002;-72
2021/08/01 05:17:34;;;;;;;10.08;9.13;;;;;;;24.89;64.13;99204.44;1708158;82;21053;-72
2021/08/01 05:20:00;;;;;;;12.95;9.90;;;;;;;24.93;63.90;99201.19;1680569;84;21034;-69
2021/08/01 05:22:26;;;;;;;10.58;9.25;;;;;;;24.94;64.03;99195.91;1703616;82;21317;-69
2021/08/01 05:24:53;;;;;;;14.15;9.38;;;;;;;24.93;63.88;99195.11;1711885;83;21058;-70
2021/08/01 05:27:19;;;;;;;12.43;10.03;;;;;;;24.93;63.99;99192.93;1698595;83;21055;-70
2021/08/01 05:29:47;;;;;;;12.85;9.00;;;;;;;24.96;64.05;99185.33;1685895;83;21014;-70
2021/08/01 05:32:14;;;;;;;12.63;10.85;;;;;;;24.98;64.19;99185.78;1687199;83;20991;-69
2021/08/01 05:34:41;;;;;;;12.95;9.35;;;;;;;25.03;64.44;99185.51;1700130;84;20963;-70
2021/08/01 05:37:08;;;;;;;13.03;10.65;;;;;;;25.09;64.52;99184.86;1741932;81;21530;-71
2021/08/01 05:39:37;;;;;;;14.58;11.12;;;;;;;25.13;64.70;99186.34;1741298;81;21038;-71
2021/08/01 05:42:05;;;;;;;13.93;10.53;;;;;;;25.19;64.63;99180.75;1736661;82;21214;-72
2021/08/01 05:44:33;;;;;;;14.60;9.90;;;;;;;25.26;64.43;99182.88;1745982;81;21014;-71
2021/08/01 05:47:06;;;;;;;15.15;10.90;;;;;;;25.28;64.39;99179.16;1757777;81;20951;-70
2021/08/01 05:49:31;;;;;;;11.22;9.68;;;;;;;25.30;64.49;99179.04;1738969;81;20923;-70
2021/08/01 05:51:58;;;;;;;14.33;11.12;;;;;;;25.32;64.44;99173.98;1765657;81;21500;-71
2021/08/01 05:54:24;;;;;;;14.68;11.50;;;;;;;25.37;64.38;99183.30;1762924;81;21183;-70
2021/08/01 05:56:51;;;;;;;11.03;9.68;;;;;;;25.43;64.17;99181.07;1757111;80;20962;-68
2021/08/01 05:59:17;;;;;;;15.43;13.83;;;;;;;25.48;64.05;99183.54;1765611;81;20965;-70
2021/08/01 06:01:43;;;;;;;11.95;10.75;;;;;;;25.50;64.05;99195.81;1759450;80;21174;-70
2021/08/01 06:04:10;;;;;;;15.80;11.63;;;;;;;25.54;64.08;99199.46;1708999;82;21055;-71
2021/08/01 06:06:36;;;;;;;9.95;9.00;;;;;;;25.57;64.24;99213.08;1680830;83;21098;-70
2021/08/01 06:09:04;;;;;;;13.83;12.25;;;;;;;25.63;64.38;99196.48;1700530;82;21038;-70
2021/08/01 06:11:30;;;;;;;11.38;10.28;;;;;;;25.67;64.42;99202.86;1730387;82;21022;-69
2021/08/01 06:13:59;;;;;;;10.72;9.45;;;;;;;25.72;64.14;99201.20;1765688;81;20974;-71
2021/08/01 06:16:26;;;;;;;24.90;11.55;;;;;;;25.76;64.02;99198.51;1748473;81;21038;-73
2021/08/01 06:18:53;;;;;;;18.32;13.93;;;;;;;25.82;63.99;99208.89;1751759;81;21188;-72
2021/08/01 06:21:19;;;;;;;10.85;9.90;;;;;;;25.90;63.83;99205.11;1741858;81;20923;-68
2021/08/01 06:23:51;;;;;;;15.70;11.48;;;;;;;25.94;63.68;99210.71;1765384;81;20946;-71
2021/08/01 06:26:21;;;;;;;14.53;11.68;;;;;;;25.98;63.83;99208.24;1705587;82;21532;-70
2021/08/01 06:28:49;;;;;;;13.80;10.68;;;;;;;26.06;63.98;99206.41;1706740;83;21543;-71
2021/08/01 06:31:15;;;;;;;16.25;11.25;;;;;;;26.12;64.07;99203.58;1699159;84;21119;-69
2021/08/01 06:33:43;;;;;;;14.90;11.63;;;;;;;26.18;64.39;99197.19;1699003;84;21523;-69
2021/08/01 06:36:11;;;;;;;14.30;11.57;;;;;;;26.22;64.25;99200.26;1675652;84;21042;-69
2021/08/01 06:38:39;;;;;;;13.50;12.13;;;;;;;26.28;63.71;99193.26;1697833;84;20951;-68
2021/08/01 06:41:05;;;;;;;12.00;10.63;;;;;;;26.33;63.38;99188.05;1762785;81;21054;-70
2021/08/01 06:43:32;;;;;;;11.97;10.15;;;;;;;26.38;63.28;99187.72;1738947;81;21935;-69
2021/08/01 06:45:59;;;;;;;11.30;10.10;;;;;;;26.43;63.07;99184.08;1761926;81;21527;-70
2021/08/01 06:48:25;;;;;;;14.13;12.68;;;;;;;26.47;62.73;99186.31;1719137;81;21066;-70
2021/08/01 06:50:52;;;;;;;15.63;11.97;;;;;;;26.51;62.58;99179.50;1762487;81;20970;-71
2021/08/01 06:53:20;;;;;;;13.53;10.28;;;;;;;26.56;62.41;99175.63;1761007;81;21044;-70
2021/08/01 06:55:46;;;;;;;12.13;10.85;;;;;;;26.61;62.16;99180.27;1748392;82;21059;-71
2021/08/01 06:58:18;;;;;;;12.10;10.10;;;;;;;26.65;61.68;99184.45;1758967;81;20982;-71
2021/08/01 07:00:50;;;;;;;11.20;10.23;;;;;;;26.63;61.74;99180.67;1737698;81;20994;-71
2021/08/01 07:03:17;;;;;;;15.28;10.32;;;;;;;26.65;61.96;99185.84;1739209;81;20963;-70
2021/08/01 07:05:44;;;;;;;11.60;10.40;;;;;;;26.69;61.92;99186.69;1763128;81;20998;-71
2021/08/01 07:08:11;;;;;;;11.60;10.53;;;;;;;26.73;62.00;99184.20;1742423;81;21077;-69
2021/08/01 07:10:38;;;;;;;13.70;10.30;;;;;;;26.82;62.05;99188.88;1733641;81;20974;-71
2021/08/01 07:13:07;;;;;;;14.00;10.90;;;;;;;26.88;61.60;99198.47;1733109;82;20998;-69
2021/08/01 07:15:37;;;;;;;10.93;9.68;;;;;;;26.93;61.08;99189.08;1732880;82;20986;-69
2021/08/01 07:18:04;;;;;;;11.10;9.78;;;;;;;26.99;60.33;99199.22;1748675;81;21073;-70
2021/08/01 07:20:30;;;;;;;11.03;9.80;;;;;;;27.03;60.01;99191.78;1743139;81;22212;-67
2021/08/01 07:22:57;;;;;;;11.20;10.10;;;;;;;27.08;60.27;99192.84;1734280;81;21005;-69
2021/08/01 07:25:24;;;;;;;13.58;9.98;;;;;;;27.14;60.64;99191.38;1728743;83;21059;-70
2021/08/01 07:27:54;;;;;;;12.37;11.15;;;;;;;27.22;60.71;99199.96;1714915;83;21054;-69
2021/08/01 07:30:21;;;;;;;12.98;10.35;;;;;;;27.29;60.45;99196.70;1698916;83;21042;-68
2021/08/01 07:32:48;;;;;;;12.78;10.35;;;;;;;27.34;60.17;99201.91;1714772;83;22194;-69
2021/08/01 07:35:14;;;;;;;15.48;11.93;;;;;;;27.39;59.75;99205.51;1708255;83;20977;-69
2021/08/01 07:37:41;;;;;;;12.23;10.95;;;;;;;27.41;59.64;99197.66;1676009;84;21068;-69
2021/08/01 07:40:09;;;;;;;11.95;10.53;;;;;;;27.42;59.91;99195.91;1740561;81;21043;-70
2021/08/01 07:42:37;;;;;;;11.95;10.18;;;;;;;27.43;59.65;99203.03;1735553;82;21003;-70
2021/08/01 07:45:06;;;;;;;16.10;12.70;;;;;;;27.37;60.08;99199.00;1736794;82;21571;-70
2021/08/01 07:47:34;;;;;;;12.00;10.63;;;;;;;27.32;60.39;99200.12;1741797;81;20985;-70
2021/08/01 07:50:02;;;;;;;11.63;10.53;;;;;;;27.31;60.92;99200.48;1753051;81;20948;-69
2021/08/01 07:52:29;;;;;;;15.48;13.88;;;;;;;27.29;60.88;99200.84;1752084;80;20943;-70
2021/08/01 07:54:56;;;;;;;16.85;12.15;;;;;;;27.29;60.69;99202.81;1705222;82;21062;-70
2021/08/01 07:57:25;;;;;;;12.45;10.65;;;;;;;27.33;60.49;99203.09;1705555;83;21215;-71
2021/08/01 07:59:53;;;;;;;10.90;9.80;;;;;;;27.44;60.48;99205.98;1684734;85;21595;-70
2021/08/01 08:02:19;;;;;;;12.90;10.70;;;;;;;27.55;59.54;99200.06;1703121;84;20951;-71
2021/08/01 08:04:48;;;;;;;12.65;9.85;;;;;;;27.64;59.05;99203.91;1685437;83;21480;-71
2021/08/01 08:07:14;;;;;;;11.08;9.95;;;;;;;27.72;58.43;99200.09;1703201;84;20953;-70
2021/08/01 08:09:40;;;;;;;14.50;10.75;;;;;;;27.74;58.10;99193.58;1708690;83;21187;-70
2021/08/01 08:12:08;;;;;;;15.25;12.35;;;;;;;27.75;58.24;99189.66;1713237;83;20999;-70
2021/08/01 08:14:36;;;;;;;12.82;10.18;;;;;;;27.80;58.11;99184.38;1713256;83;20983;-70
2021/08/01 08:17:03;;;;;;;12.88;9.23;;;;;;;27.86;57.64;99181.49;1699920;83;21037;-69
2021/08/01 08:19:30;;;;;;;13.53;9.65;;;;;;;27.95;57.59;99186.94;1702278;84;21550;-71
2021/08/01 08:22:07;;;;;;;10.72;9.70;;;;;;;28.08;57.54;99187.46;1676305;85;21207;-70
2021/08/01 08:24:34;;;;;;;11.33;9.43;;;;;;;28.20;56.87;99187.23;1660901;85;21538;-70
2021/08/01 08:27:00;;;;;;;13.05;8.88;;;;;;;28.30;56.49;99182.38;1694573;83;20931;-70
2021/08/01 08:29:26;;;;;;;11.75;10.65;;;;;;;28.38;56.16;99191.55;1713556;83;20951;-68
2021/08/01 08:31:54;;;;;;;10.93;9.75;;;;;;;28.43;54.97;99200.89;1698032;83;20987;-69
2021/08/01 08:34:23;;;;;;;14.75;9.53;;;;;;;28.37;55.04;99202.41;1696675;83;21055;-70
2021/08/01 08:36:51;;;;;;;16.67;10.08;;;;;;;28.28;55.61;99183.36;1687276;83;20993;-71
2021/08/01 08:39:19;;;;;;;12.68;11.25;;;;;;;28.30;55.94;99199.59;1695212;82;21473;-69
2021/08/01 08:41:45;;;;;;;14.55;12.25;;;;;;;28.38;55.76;99201.23;1664725;85;21023;-68
2021/08/01 08:44:12;;;;;;;11.73;10.58;;;;;;;28.42;55.86;99208.39;1664800;85;21547;-70
2021/08/01 08:46:39;;;;;;;13.05;11.08;;;;;;;28.45;55.97;99206.23;1698893;84;21186;-72
2021/08/01 08:49:13;;;;;;;18.15;10.13;;;;;;;28.47;56.09;99209.43;1703434;83;20983;-70
2021/08/01 08:51:43;;;;;;;14.47;10.35;;;;;;;28.43;55.86;99211.38;1703267;83;21046;-69
2021/08/01 08:54:13;;;;;;;18.65;12.20;;;;;;;28.43;56.47;99195.36;1703488;83;21098;-69
2021/08/01 08:56:41;;;;;;;14.90;10.43;;;;;;;28.51;56.85;99199.19;1719150;83;21531;-68
2021/08/01 08:59:19;;;;;;;14.60;10.60;;;;;;;28.61;56.54;99198.48;1673599;84;21126;-70
2021/08/01 09:01:45;;;;;;;11.88;9.93;;;;;;;28.75;56.26;99198.43;1670812;84;20979;-68
2021/08/01 09:04:12;;;;;;;15.88;11.53;;;;;;;28.82;56.12;99197.91;1685703;85;21571;-69
2021/08/01 09:06:39;;;;;;;12.50;9.70;;;;;;;28.80;55.98;99181.47;1685986;84;21020;-68
2021/08/01 09:09:05;;;;;;;16.42;10.13;;;;;;;28.78;56.31;99189.34;1670839;85;21028;-70
2021/08/01 09:11:31;;;;;;;13.95;10.60;;;;;;;28.83;56.35;99200.06;1673767;84;21842;-70
2021/08/01 09:13:59;;;;;;;12.90;10.32;;;;;;;28.88;56.10;99194.17;1660143;85;20908;-70
2021/08/01 09:16:44;;;;;;;13.38;11.53;;;;;;;28.83;56.31;99193.14;1748937;81;21058;-69
2021/08/01 09:19:35;;;;;;;15.75;11.88;;;;;;;28.89;56.27;99191.03;1746492;81;21696;-70
2021/08/01 09:22:22;;;;;;;15.53;10.82;;;;;;;29.06;56.14;99182.66;1755181;81;20984;-70
2021/08/01 09:24:51;;;;;;;12.73;9.00;;;;;;;29.20;55.82;99191.06;1731210;81;21739;-69
2021/08/01 09:27:32;;;;;;;13.22;10.15;;;;;;;29.35;55.62;99187.19;1755087;81;20920;-69
2021/08/01 09:30:00;;;;;;;23.65;12.73;;;;;;;29.48;55.40;99189.06;1740176;81;21503;-70
2021/08/01 09:32:31;;;;;;;16.45;11.30;;;;;;;29.61;55.18;99193.66;1725017;83;20991;-70
2021/08/01 09:34:57;;;;;;;14.98;10.98;;;;;;;29.73;55.09;99191.36;1677335;82;21023;-70
2021/08/01 09:37:32;;;;;;;12.85;9.58;;;;;;;29.84;54.87;99193.56;1735064;81;21491;-69
2021/08/01 09:40:12;;;;;;;18.17;12.03;;;;;;;29.94;54.27;99193.43;1725026;81;20975;-69
2021/08/01 09:42:40;;;;;;;16.50;12.78;;;;;;;30.01;54.32;99195.44;1761403;81;20947;-69
2021/08/01 09:45:18;;;;;;;19.50;12.23;;;;;;;30.06;54.26;99196.45;1762447;81;21547;-75
2021/08/01 09:47:46;;;;;;;19.85;12.75;;;;;;;30.13;54.11;99189.52;1761365;81;20991;-69
2021/08/01 09:50:14;;;;;;;20.80;13.85;;;;;;;30.25;54.37;99185.00;1751845;81;21031;-68
2021/08/01 09:52:42;;;;;;;21.10;13.08;;;;;;;30.42;54.18;99194.53;1731857;82;21025;-70
2021/08/01 09:55:17;;;;;;;24.67;12.55;;;;;;;30.52;54.20;99195.16;1740431;81;21460;-68
2021/08/01 09:57:52;;;;;;;14.68;12.40;;;;;;;30.63;53.59;99191.81;1761149;81;21523;-70
2021/08/01 10:00:21;;;;;;;15.98;10.70;;;;;;;30.59;53.63;99184.87;1754580;81;21072;-70
2021/08/01 10:02:48;;;;;;;12.18;10.98;;;;;;;30.65;53.13;99189.41;1721451;81;21737;-69
2021/08/01 10:05:19;;;;;;;17.48;11.05;;;;;;;30.73;52.43;99188.25;1758878;81;21036;-71
2021/08/01 10:07:48;;;;;;;12.55;10.18;;;;;;;30.77;52.21;99185.46;1753446;81;20967;-73
2021/08/01 10:10:25;;;;;;;13.25;10.70;;;;;;;30.88;52.21;99198.16;1761405;81;21034;-72
2021/08/01 10:12:58;;;;;;;16.82;12.58;;;;;;;30.91;51.70;99191.80;1748794;81;20939;-71
2021/08/01 10:15:26;;;;;;;16.20;9.90;;;;;;;31.00;51.32;99199.72;1731900;82;21114;-75
2021/08/01 10:17:53;;;;;;;16.73;9.95;;;;;;;31.04;50.37;99197.76;1704718;82;21046;-70
2021/08/01 10:20:20;;;;;;;11.48;9.08;;;;;;;30.91;50.54;99188.23;1708984;81;21022;-78
2021/08/01 10:22:47;;;;;;;30.35;7.95;;;;;;;30.81;50.66;99193.19;1728861;82;21030;-85
2021/08/01 10:25:24;;;;;;;12.37;8.38;;;;;;;30.55;49.46;99190.23;1732260;81;21510;-80
2021/08/01 10:27:53;;;;;;;11.83;8.30;;;;;;;30.11;50.43;99183.59;1744207;81;21807;-80
2021/08/01 10:30:27;;;;;;;16.20;9.83;;;;;;;29.86;51.28;99190.41;1747831;81;20960;-81
2021/08/01 10:32:53;;;;;;;13.45;8.45;;;;;;;29.59;52.00;99189.12;1731181;82;20966;-77
2021/08/01 10:35:21;;;;;;;17.12;9.38;;;;;;;29.39;52.87;99190.80;1732574;82;21424;-70
2021/08/01 10:38:02;;;;;;;12.05;7.87;;;;;;;29.24;53.52;99193.25;1758709;81;21401;-71
2021/08/01 10:40:34;;;;;;;12.37;8.25;;;;;;;28.95;55.29;99191.47;1733133;81;21457;-73
2021/08/01 10:43:03;;;;;;;11.05;9.13;;;;;;;28.62;57.21;99195.14;1705188;82;20899;-82
2021/08/01 10:45:31;;;;;;;16.32;9.65;;;;;;;28.46;57.99;99187.09;1714219;81;21003;-80
2021/08/01 10:47:58;;;;;;;13.80;10.20;;;;;;;28.33;58.88;99193.28;1682983;84;21021;-76
2021/08/01 10:50:28;;;;;;;14.95;10.45;;;;;;;28.27;59.49;99195.59;1694006;84;20991;-75
2021/08/01 10:53:26;;;;;;;11.80;8.53;;;;;;;28.29;59.65;99193.25;1703006;83;21156;-82
2021/08/01 10:56:20;;;;;;;13.93;9.10;;;;;;;28.33;59.93;99192.70;1727266;83;20991;-80
2021/08/01 10:58:47;;;;;;;9.80;8.85;;;;;;;28.38;60.15;99199.27;1721993;83;20900;-78
2021/08/01 11:01:13;;;;;;;15.40;9.75;;;;;;;28.42;59.98;99190.41;1729387;82;21574;-81
2021/08/01 11:03:41;;;;;;;11.55;9.73;;;;;;;28.44;60.15;99184.50;1726963;82;21043;-82
2021/08/01 11:06:43;;;;;;;14.15;9.20;;;;;;;28.51;59.73;99178.44;1678122;83;21010;-80
2021/08/01 11:09:12;;;;;;;18.42;11.68;;;;;;;28.61;59.16;99172.20;1673037;84;20995;-85
2021/08/01 11:11:44;;;;;;;19.27;10.50;;;;;;;28.76;58.91;99173.73;1674924;85;21390;-82
2021/08/01 11:14:08;;;;;;;12.18;10.93;;;;;;;28.85;58.38;99175.58;1696242;83;21594;-83
2021/08/01 11:16:43;;;;;;;13.03;9.85;;;;;;;28.90;58.27;99176.60;1663756;84;21469;-82
2021/08/01 11:19:34;;;;;;;11.75;9.98;;;;;;;28.95;57.83;99161.02;1724584;82;22547;-81
2021/08/01 11:22:01;;;;;;;13.72;9.75;;;;;;;28.92;57.87;99161.18;1703476;83;21579;-78
2021/08/01 11:24:27;;;;;;;14.30;11.48;;;;;;;28.90;58.07;99162.17;1716030;83;21007;-78
2021/08/01 11:27:08;;;;;;;11.43;10.00;;;;;;;28.80;58.59;99171.78;1701408;83;21536;-78
2021/08/01 11:30:02;;;;;;;12.58;10.23;;;;;;;28.76;58.52;99166.80;1722861;83;20916;-77
2021/08/01 11:32:29;;;;;;;;;;;;;;;28.79;58.41;99166.03;1676323;84;22798;-76